createdAt,value
2023-04-07T00:02:48.903Z,2.08
2023-04-07T00:07:56.584Z,2.30
2023-04-07T00:12:59.113Z,2.75
2023-04-07T00:18:00.896Z,2.80
2023-04-07T00:23:02.520Z,2.60
2023-04-07T00:28:04.376Z,3.53
2023-04-07T00:33:09.558Z,1.90
2023-04-07T00:38:11.877Z,2.38
2023-04-07T00:43:13.573Z,2.85
2023-04-07T00:48:15.312Z,2.13
2023-04-07T00:53:17.131Z,3.17
2023-04-07T00:58:18.996Z,2.58
2023-04-07T01:03:30.768Z,2.95
2023-04-07T01:08:48.380Z,2.72
2023-04-07T01:13:51.451Z,2.67
2023-04-07T01:19:27.215Z,2.83
2023-04-07T01:25:02.945Z,2.60
2023-04-07T01:30:10.484Z,2.53
2023-04-07T01:35:14.450Z,2.17
2023-04-07T01:40:16.695Z,2.45
2023-04-07T01:45:20.493Z,2.92
2023-04-07T01:50:22.847Z,2.67
2023-04-07T01:55:25.284Z,2.47
2023-04-07T02:00:36.331Z,2.33
2023-04-07T02:05:43.233Z,2.05
2023-04-07T02:10:48.364Z,1.85
2023-04-07T02:15:52.379Z,1.75
2023-04-07T02:20:56.402Z,3.03
2023-04-07T02:25:58.287Z,2.15
2023-04-07T02:30:59.913Z,2.22
2023-04-07T02:36:01.601Z,1.98
2023-04-07T02:41:03.278Z,2.17
2023-04-07T02:46:04.936Z,2.10
2023-04-07T02:51:06.528Z,2.10
2023-04-07T02:56:08.228Z,1.80
2023-04-07T03:01:09.945Z,1.52
2023-04-07T03:06:11.750Z,1.48
2023-04-07T03:11:23.580Z,1.52
2023-04-07T03:16:25.880Z,1.40
2023-04-07T03:21:37.421Z,1.48
2023-04-07T03:26:39.389Z,1.40
2023-04-07T03:31:48.831Z,1.27
2023-04-07T03:36:53.566Z,1.65
2023-04-07T03:41:56.579Z,1.00
2023-04-07T03:47:01.350Z,1.60
2023-04-07T03:52:05.451Z,1.35
2023-04-07T03:57:08.337Z,1.55
2023-04-07T04:02:16.504Z,1.42
2023-04-07T04:07:19.154Z,1.50
2023-04-07T04:12:24.927Z,1.95
2023-04-07T04:17:38.706Z,1.20
2023-04-07T04:22:40.860Z,1.35
2023-04-07T04:27:42.612Z,1.55
2023-04-07T04:32:51.885Z,1.50
2023-04-07T04:37:59.400Z,1.60
2023-04-07T04:43:02.207Z,1.45
2023-04-07T04:48:06.398Z,1.42
2023-04-07T04:53:08.132Z,1.80
2023-04-07T04:58:10.799Z,1.38
2023-04-07T05:03:21.585Z,2.13
2023-04-07T05:08:25.942Z,1.20
2023-04-07T05:13:30.723Z,1.92
2023-04-07T05:18:35.353Z,1.48
2023-04-07T05:23:38.679Z,2.33
2023-04-07T05:28:41.563Z,1.63
2023-04-07T05:33:50.089Z,1.50
2023-04-07T05:38:52.364Z,2.10
2023-04-07T05:43:54.339Z,1.92
2023-04-07T05:48:56.658Z,1.67
2023-04-07T05:54:05.588Z,2.15
2023-04-07T05:59:07.267Z,2.40
2023-04-07T06:04:08.941Z,2.20
2023-04-07T06:09:10.793Z,3.60
2023-04-07T06:14:12.572Z,1.73
2023-04-07T06:19:14.250Z,1.55
2023-04-07T06:24:15.884Z,1.05
2023-04-07T06:29:17.578Z,1.50
2023-04-07T06:34:20.002Z,1.60
2023-04-07T06:39:21.776Z,1.90
2023-04-07T06:44:23.629Z,1.52
2023-04-07T06:49:25.666Z,1.73
2023-04-07T06:54:27.372Z,1.98
2023-04-07T06:59:29.249Z,1.23
2023-04-07T07:04:30.958Z,1.90
2023-04-07T07:09:32.702Z,1.10
2023-04-07T07:14:35.720Z,1.60
2023-04-07T07:19:37.497Z,1.67
2023-04-07T07:24:39.139Z,1.48
2023-04-07T07:29:41.446Z,2.53
2023-04-07T07:34:43.092Z,2.17
2023-04-07T07:39:44.932Z,3.15
2023-04-07T07:44:46.658Z,2.40
2023-04-07T07:49:48.788Z,2.80
2023-04-07T07:54:51.249Z,2.10
2023-04-07T07:59:53.488Z,2.50
2023-04-07T08:04:55.338Z,2.20
2023-04-07T08:09:56.965Z,1.92
2023-04-07T08:14:58.628Z,4.13
2023-04-07T08:20:01.274Z,2.03
2023-04-07T08:25:03.311Z,2.28
2023-04-07T08:30:08.950Z,1.67
2023-04-07T08:35:11.574Z,1.52
2023-04-07T08:40:13.646Z,1.75
2023-04-07T08:45:17.179Z,1.92
2023-04-07T08:50:19.766Z,2.00
2023-04-07T08:55:21.629Z,1.88
2023-04-07T09:00:23.889Z,2.35
2023-04-07T09:05:26.022Z,2.13
2023-04-07T09:10:27.610Z,1.55
2023-04-07T09:15:31.823Z,2.38
2023-04-07T09:20:54.549Z,2.20
2023-04-07T09:25:56.212Z,1.85
2023-04-07T09:30:57.928Z,2.30
2023-04-07T09:35:59.838Z,1.90
2023-04-07T09:41:12.675Z,2.90
2023-04-07T09:46:17.526Z,2.50
2023-04-07T09:51:19.194Z,2.25
2023-04-07T09:56:24.740Z,2.20
2023-04-07T10:01:26.430Z,1.58
2023-04-07T10:06:28.298Z,1.42
2023-04-07T10:11:30.338Z,2.08
2023-04-07T10:16:32.388Z,3.20
2023-04-07T10:21:40.724Z,2.53
2023-04-07T10:26:42.902Z,1.83
2023-04-07T10:31:45.706Z,2.65
2023-04-07T10:37:13.759Z,3.25
2023-04-07T10:42:40.928Z,2.65
2023-04-07T10:48:00.866Z,2.20
2023-04-07T10:53:08.523Z,3.03
2023-04-07T10:58:23.441Z,2.22
2023-04-07T11:03:25.941Z,2.40
2023-04-07T11:08:53.830Z,4.63
2023-04-07T11:13:55.489Z,2.85
2023-04-07T11:18:57.476Z,3.00
2023-04-07T11:23:59.237Z,3.08
2023-04-07T11:29:01.849Z,2.60
2023-04-07T11:34:05.500Z,2.72
2023-04-07T11:39:20.438Z,3.05
2023-04-07T11:44:22.129Z,3.28
2023-04-07T11:49:25.498Z,2.90
2023-04-07T11:54:27.304Z,2.72
2023-04-07T11:59:29.180Z,3.30
2023-04-07T12:04:31.492Z,3.78
2023-04-07T12:09:36.193Z,2.33
2023-04-07T12:14:38.078Z,1.85
2023-04-07T12:19:39.894Z,3.05
2023-04-07T12:24:41.700Z,3.70
2023-04-07T12:29:44.056Z,5.45
2023-04-07T12:34:45.708Z,3.40
2023-04-07T12:39:47.328Z,3.03
2023-04-07T12:44:48.984Z,3.58
2023-04-07T12:49:51.160Z,3.00
2023-04-07T12:54:53.554Z,3.45
2023-04-07T12:59:55.207Z,3.53
2023-04-07T13:04:56.988Z,2.05
2023-04-07T13:09:58.644Z,2.65
2023-04-07T13:15:00.968Z,1.98
2023-04-07T13:20:04.301Z,2.33
2023-04-07T13:25:06.409Z,2.38
2023-04-07T13:30:08.453Z,3.25
2023-04-07T13:35:10.068Z,2.60
2023-04-07T13:40:12.772Z,2.40
2023-04-07T13:45:14.560Z,2.53
2023-04-07T13:50:16.136Z,3.20
2023-04-07T13:55:20.352Z,2.75
2023-04-07T14:00:22.056Z,3.40
2023-04-07T14:05:24.412Z,3.25
2023-04-07T14:10:26.292Z,3.25
2023-04-07T14:15:27.964Z,3.38
2023-04-07T14:20:29.752Z,2.35
2023-04-07T14:25:32.124Z,2.15
2023-04-07T14:30:38.438Z,1.70
2023-04-07T14:35:40.133Z,2.15
2023-04-07T14:40:41.919Z,2.22
2023-04-07T14:45:43.754Z,2.25
2023-04-07T14:50:46.121Z,2.50
2023-04-07T14:55:48.410Z,2.60
2023-04-07T15:00:50.116Z,2.80
2023-04-07T15:05:51.778Z,2.60
2023-04-07T15:10:53.443Z,2.30
2023-04-07T15:15:55.165Z,2.30
2023-04-07T15:20:56.801Z,2.28
2023-04-07T15:25:58.517Z,3.22
2023-04-07T15:31:01.292Z,2.92
2023-04-07T15:36:04.250Z,3.58
2023-04-07T15:41:06.443Z,3.92
2023-04-07T15:46:08.044Z,4.32
2023-04-07T15:51:09.820Z,5.35
2023-04-07T15:56:13.188Z,4.63
2023-04-07T16:01:15.553Z,5.32
2023-04-07T16:06:17.292Z,5.47
2023-04-07T16:11:18.929Z,7.50
2023-04-07T16:16:20.946Z,6.70
2023-04-07T16:21:22.626Z,6.25
2023-04-07T16:26:24.248Z,7.63
2023-04-07T16:31:25.990Z,8.18
2023-04-07T16:36:28.939Z,8.73
2023-04-07T16:41:30.575Z,8.77
2023-04-07T16:46:32.355Z,10.38
2023-04-07T16:51:34.126Z,9.05
2023-04-07T16:56:35.876Z,12.43
2023-04-07T17:01:41.992Z,9.90
2023-04-07T17:06:43.949Z,10.70
2023-04-07T17:11:45.668Z,11.95
2023-04-07T17:16:47.661Z,12.60
2023-04-07T17:21:49.387Z,14.07
2023-04-07T17:26:51.251Z,12.63
2023-04-07T17:31:52.832Z,12.95
2023-04-07T17:36:54.420Z,13.63
2023-04-07T17:41:56.534Z,13.00
2023-04-07T17:46:58.976Z,12.32
2023-04-07T17:52:00.581Z,13.80
2023-04-07T17:57:03.503Z,13.43
2023-04-07T18:02:09.168Z,13.15
2023-04-07T18:07:12.952Z,12.48
2023-04-07T18:12:14.656Z,14.23
2023-04-07T18:17:16.681Z,13.43
2023-04-07T18:22:18.725Z,14.98
2023-04-07T18:27:24.005Z,14.10
2023-04-07T18:32:25.871Z,14.57
2023-04-07T18:37:29.498Z,12.88
2023-04-07T18:42:31.251Z,15.38
2023-04-07T18:47:33.044Z,15.10
2023-04-07T18:52:34.698Z,16.58
2023-04-07T18:57:37.291Z,17.67
2023-04-07T19:02:44.339Z,14.25
2023-04-07T19:07:46.366Z,16.33
2023-04-07T19:12:48.054Z,14.63
2023-04-07T19:17:49.781Z,17.20
2023-04-07T19:22:51.545Z,16.55
2023-04-07T19:27:53.272Z,17.05
2023-04-07T19:32:55.295Z,16.38
2023-04-07T19:37:56.910Z,18.27
2023-04-07T19:42:58.711Z,18.63
2023-04-07T19:48:00.525Z,16.67
2023-04-07T19:53:02.192Z,18.67
2023-04-07T19:58:03.803Z,17.30
2023-04-07T20:03:06.469Z,16.65
2023-04-07T20:08:08.380Z,16.13
2023-04-07T20:13:10.472Z,16.27
2023-04-07T20:18:12.426Z,17.98
2023-04-07T20:23:16.071Z,17.40
2023-04-07T20:28:17.657Z,14.50
2023-04-07T20:33:19.914Z,15.55
2023-04-07T20:38:21.588Z,15.88
2023-04-07T20:43:23.834Z,14.50
2023-04-07T20:48:25.695Z,15.07
2023-04-07T20:53:27.549Z,14.55
2023-04-07T20:58:29.241Z,14.80
2023-04-07T21:03:31.151Z,14.88
2023-04-07T21:08:32.907Z,15.35
2023-04-07T21:13:34.497Z,14.18
2023-04-07T21:18:36.411Z,14.63
2023-04-07T21:23:37.946Z,13.90
2023-04-07T21:28:40.597Z,14.18
2023-04-07T21:33:42.232Z,13.55
2023-04-07T21:38:43.886Z,13.75
2023-04-07T21:43:46.037Z,13.05
2023-04-07T21:48:49.083Z,11.85
2023-04-07T21:53:50.900Z,12.50
2023-04-07T21:58:53.393Z,11.57
2023-04-07T22:03:55.061Z,10.93
2023-04-07T22:09:01.770Z,12.57
2023-04-07T22:14:04.047Z,12.50
2023-04-07T22:19:05.693Z,11.77
2023-04-07T22:24:07.287Z,12.77
2023-04-07T22:29:09.575Z,13.05
2023-04-07T22:34:11.370Z,14.52
2023-04-07T22:39:13.078Z,14.15
2023-04-07T22:44:14.733Z,15.50
2023-04-07T22:49:16.748Z,14.18
2023-04-07T22:54:18.333Z,14.07
2023-04-07T22:59:20.006Z,15.45
2023-04-07T23:04:21.659Z,13.88
2023-04-07T23:09:23.303Z,13.80
2023-04-07T23:14:24.903Z,14.50
2023-04-07T23:19:26.715Z,15.95
2023-04-07T23:24:28.327Z,15.65
2023-04-07T23:29:30.138Z,14.85
2023-04-07T23:34:31.759Z,16.08
2023-04-07T23:39:34.357Z,17.98
2023-04-07T23:44:36.171Z,18.67
2023-04-07T23:49:37.798Z,18.15
2023-04-07T23:54:39.481Z,18.75
2023-04-07T23:59:41.150Z,20.02
